الصفحة الرئيسية
صور الأقمار الصناعية توقعات الطقس لمدة 15 يوممناخالتوقعات البحرية إعصار برق مطارأسئلة وأجوبة النشرة الإخبارية حول
طقس : أوروبا أفريقيا أمريكا الشمالية أمريكا الجنوبية آسيا أستراليا-أوقيانوسيا آخرون
لغات جهة اتصال

سكاكا, السعودية

دائرة عرض: 29-47N, خط طول: 040-06E, ارتفاع: 689 m


METAR: OESK 020800Z 30008KT CAVOK 38/06 Q1009 NOSIG
short-TAF: عفا عليها الزمن (1305 ساعات)
long-TAF: OESK 011030Z 0112/0218 33014KT CAVOK BECMG 0120/0122 29008KT

زمن: 11:32 (08:32 UTC)

مراقبة الطقس الحالي

تاريخ و وقت الإصدار 32 دقيقة قبل الساعة 08:00 UTC  
ريح 08 kt من الغرب/
درجة الحرارة 38°C
الرطوبة 14%
ضغط 1009 hPa
الرؤية 10 km أو أكثر
الغيوم لا تقل 1500 م وليس السحاب الأسود

تغيير وحدة

توقعات

تاريخ و وقت الإصدار 21 ساعات و 59 دقيقة قبل الساعة 10:33 UTC  
صالحة من التوقعات 01 في 12 بالتوقيت العالمي إلى 02 في 18 بالتوقيت العالمي
ريح 14 kt من الشمال/
الرؤية 10 km أو أكثر
الغيوم لا تقل 1500 م وليس السحاب الأسود
أصبح
من 01 في 20 بالتوقيت العالمي إلى 01 في 22 بالتوقيت العالمي
ريح 08 kt من الغرب/
المعلومات الواردة في هذا الموقع يخضع إخلاء
طقس : أوروبا أفريقيا أمريكا الشمالية أمريكا الجنوبية آسيا أستراليا-أوقيانوسيا آخرون
صور الأقمار الصناعية توقعات الطقس لمدة 15 يوممناخالتوقعات البحرية إعصار برق مطارأسئلة وأجوبة لغات جهة اتصال النشرة الإخبارية حول